This is the latest recevied weather packets stored in our database for station/object VU3CAM-13. If no packets are shown the sender has not sent any weather packets the latest 10 day(s).
| Time | Temp. | Humidity | Pressure | Rain* | Wind** | Luminosity | Snow |
|---|---|---|---|---|---|---|---|
| 1788415922 | 26.67° C | 63% | 911.7 hPa | - | - | - | - |
| 1788415322 | 26.67° C | 63% | 911.9 hPa | - | - | - | - |
| 1788414722 | 26.67° C | 64% | 912.1 hPa | - | - | - | - |
| 1788414122 | 26.11° C | 65% | 912.1 hPa | - | - | - | - |
| 1788413522 | 26.11° C | 65% | 912.3 hPa | - | - | - | - |
| 1788412922 | 26.11° C | 67% | 912.4 hPa | - | - | - | - |
| 1788412322 | 26.11° C | 66% | 912.5 hPa | - | - | - | - |
| 1788411722 | 26.67° C | 66% | 912.6 hPa | - | - | - | - |
| 1788411122 | 25° C | 69% | 912.6 hPa | - | - | - | - |
| 1788410522 | 25.56° C | 69% | 912.7 hPa | - | - | - | - |
| 1788409922 | 25.56° C | 69% | 912.8 hPa | - | - | - | - |
| 1788409322 | 24.44° C | 72% | 912.8 hPa | - | - | - | - |
| 1788408722 | 25° C | 72% | 912.9 hPa | - | - | - | - |
| 1788408122 | 24.44° C | 72% | 913 hPa | - | - | - | - |
| 1788407522 | 24.44° C | 74% | 913 hPa | - | - | - | - |
| 1788406922 | 23.89° C | 74% | 912.9 hPa | - | - | - | - |
| 1788406322 | 23.89° C | 75% | 912.9 hPa | - | - | - | - |
| 1788405722 | 23.89° C | 76% | 912.9 hPa | - | - | - | - |
| 1788405122 | 23.33° C | 77% | 912.9 hPa | - | - | - | - |
| 1788404522 | 23.89° C | 75% | 912.9 hPa | - | - | - | - |
| 1788400922 | 23.33° C | 77% | 912 hPa | - | - | - | - |
| 1788376922 | 26.67° C | 62% | 912.2 hPa | - | - | - | - |
| 1788366122 | 27.78° C | 64% | 913.5 hPa | - | - | - | - |
| 1788359521 | 27.22° C | 64% | 912.3 hPa | - | - | - | - |
| 1788358921 | 26.67° C | 68% | 912.2 hPa | - | - | - | - |
* Rain since midnight (hover to see other rain measurements)
** Current wind speed in m/s (hover to see current wind gust speed)